Time;durP1;ratioP1;P1;durP2;ratioP2;P2;SDS_P1;SDS_P2;PMS_P1;PMS_P2;Temp;Humidity;BMP_temperature;BMP_pressure;BME280_temperature;BME280_humidity;BME280_pressure;Samples;Min_cycle;Max_cycle;Signal;HPM_P1;HPM_P2
2023/05/21 00:01:38;;;;;;;;;20.00;18.00;;;;;21.99;52.54;101670.81;110208;1251;21765;-39
2023/05/21 00:04:06;;;;;;;;;14.50;14.50;;;;;21.98;52.44;101668.89;110121;1265;22312;-39
2023/05/21 00:06:35;;;;;;;;;15.00;15.00;;;;;21.97;52.33;101673.90;110257;1265;23490;-40
2023/05/21 00:09:02;;;;;;;;;14.00;14.00;;;;;21.97;52.36;101675.95;110287;1251;21162;-41
2023/05/21 00:11:30;;;;;;;;;17.00;15.00;;;;;21.96;52.28;101674.39;110308;1265;19987;-38
2023/05/21 00:13:57;;;;;;;;;18.00;17.00;;;;;21.96;52.24;101672.20;110280;1259;19456;-40
2023/05/21 00:16:25;;;;;;;;;18.00;18.00;;;;;21.96;52.24;101670.09;110245;1251;21454;-39
2023/05/21 00:18:53;;;;;;;;;15.00;14.00;;;;;21.97;52.22;101664.39;110270;1250;19207;-39
2023/05/21 00:21:21;;;;;;;;;14.00;12.00;;;;;21.96;52.04;101667.70;110316;1249;20859;-39
2023/05/21 00:23:49;;;;;;;;;12.00;12.00;;;;;21.96;52.20;101668.62;110276;1265;22822;-39
2023/05/21 00:26:17;;;;;;;;;14.00;12.00;;;;;21.95;52.20;101671.76;110305;1250;20059;-39
2023/05/21 00:28:44;;;;;;;;;13.50;12.50;;;;;21.96;52.08;101670.42;110251;1265;21931;-40
2023/05/21 00:31:12;;;;;;;;;14.00;13.00;;;;;21.96;52.07;101673.94;110252;1251;23968;-40
2023/05/21 00:33:39;;;;;;;;;16.00;15.00;;;;;21.94;51.95;101672.05;110263;1265;21479;-42
2023/05/21 00:36:07;;;;;;;;;14.00;14.00;;;;;21.94;51.99;101670.48;110241;1257;21868;-39
2023/05/21 00:38:36;;;;;;;;;14.00;12.00;;;;;21.94;51.97;101675.71;110256;1254;22975;-40
2023/05/21 00:41:04;;;;;;;;;14.00;14.00;;;;;21.93;51.93;101673.88;110283;1265;21579;-39
2023/05/21 00:43:31;;;;;;;;;12.00;11.00;;;;;21.93;51.79;101673.82;110160;1265;20952;-41
2023/05/21 00:45:59;;;;;;;;;14.00;14.00;;;;;21.93;51.76;101673.98;110170;1265;135826;-40
2023/05/21 00:48:26;;;;;;;;;14.00;14.00;;;;;21.92;51.92;101672.65;110248;1265;19971;-39
2023/05/21 00:50:54;;;;;;;;;13.00;13.00;;;;;21.93;51.75;101672.20;110288;1265;20972;-39
2023/05/21 00:53:21;;;;;;;;;13.00;13.00;;;;;21.93;51.71;101669.14;110280;1251;21565;-39
2023/05/21 00:55:49;;;;;;;;;14.00;14.00;;;;;21.92;51.78;101671.35;110265;1265;19179;-39
2023/05/21 00:58:17;;;;;;;;;14.00;12.00;;;;;21.91;51.71;101667.83;110306;1251;20997;-39
2023/05/21 01:00:44;;;;;;;;;14.00;12.00;;;;;21.91;51.61;101668.41;110280;1251;23416;-39
2023/05/21 01:03:11;;;;;;;;;14.50;12.00;;;;;21.91;51.63;101666.60;110246;1266;19976;-39
2023/05/21 01:05:39;;;;;;;;;20.00;17.00;;;;;21.91;51.67;101663.16;110265;1265;20785;-39
2023/05/21 01:08:06;;;;;;;;;14.00;13.33;;;;;21.90;51.66;101662.11;110251;1249;22646;-39
2023/05/21 01:10:34;;;;;;;;;17.00;15.00;;;;;21.90;51.49;101660.73;110246;1265;19121;-39
2023/05/21 01:13:01;;;;;;;;;15.33;15.33;;;;;21.89;51.60;101660.42;110236;1265;23238;-40
2023/05/21 01:15:29;;;;;;;;;14.67;14.67;;;;;21.90;51.52;101659.65;110259;1251;21564;-39
2023/05/21 01:17:56;;;;;;;;;15.00;15.00;;;;;21.89;51.55;101654.80;110242;1251;19891;-39
2023/05/21 01:20:24;;;;;;;;;12.00;12.00;;;;;21.89;51.39;101651.35;110249;1250;19444;-46
2023/05/21 01:22:51;;;;;;;;;21.00;17.50;;;;;21.89;51.31;101658.45;110265;1251;22779;-41
2023/05/21 01:25:18;;;;;;;;;15.00;15.00;;;;;21.87;51.35;101651.50;110308;1251;21332;-39
2023/05/21 01:27:46;;;;;;;;;17.00;15.00;;;;;21.86;51.55;101649.59;110274;1265;20805;-39
2023/05/21 01:30:13;;;;;;;;;17.00;14.00;;;;;21.87;51.28;101651.20;110273;1251;21419;-39
2023/05/21 01:32:41;;;;;;;;;17.00;15.00;;;;;21.86;51.24;101647.64;110260;1265;19599;-39
2023/05/21 01:35:08;;;;;;;;;20.67;17.67;;;;;21.85;51.23;101650.06;110319;1265;20824;-40
2023/05/21 01:37:35;;;;;;;;;13.00;13.00;;;;;21.86;51.21;101645.45;110285;1251;22922;-39
2023/05/21 01:40:03;;;;;;;;;15.00;13.50;;;;;21.86;50.95;101649.85;110275;1251;20025;-39
2023/05/21 01:42:31;;;;;;;;;11.00;11.00;;;;;21.85;50.99;101648.46;110296;1265;20786;-40
2023/05/21 01:44:59;;;;;;;;;21.00;15.00;;;;;21.84;50.99;101651.09;110247;1251;22754;-39
2023/05/21 01:47:26;;;;;;;;;15.00;14.50;;;;;21.84;50.88;101650.23;110277;1251;23161;-39
2023/05/21 01:49:53;;;;;;;;;14.50;13.00;;;;;21.84;50.93;101651.70;110273;1257;20783;-39
2023/05/21 01:52:21;;;;;;;;;14.50;14.00;;;;;21.83;50.82;101653.75;110302;1265;23693;-40
2023/05/21 01:54:49;;;;;;;;;14.00;12.00;;;;;21.83;50.90;101655.05;110257;1265;19943;-39
2023/05/21 01:57:17;;;;;;;;;15.00;15.00;;;;;21.84;50.86;101658.73;110180;1250;21998;-38
2023/05/21 01:59:46;;;;;;;;;14.00;14.00;;;;;21.84;50.68;101656.23;110316;1266;21504;-39
2023/05/21 02:02:14;;;;;;;;;15.00;14.00;;;;;21.83;50.86;101652.92;110317;1257;20004;-39
2023/05/21 02:04:42;;;;;;;;;14.50;14.00;;;;;21.82;50.58;101651.86;110293;1265;22987;-40
2023/05/21 02:07:13;;;;;;;;;14.50;14.50;;;;;21.83;50.60;101647.02;110265;1266;23538;-39
2023/05/21 02:09:40;;;;;;;;;14.00;11.33;;;;;21.84;50.65;101650.40;110311;1265;19945;-39
2023/05/21 02:12:08;;;;;;;;;13.00;13.00;;;;;21.83;50.40;101648.90;110269;1265;20700;-41
2023/05/21 02:14:37;;;;;;;;;13.00;13.00;;;;;21.82;50.44;101648.41;110225;1265;23122;-39
2023/05/21 02:17:04;;;;;;;;;12.00;12.00;;;;;21.81;50.44;101649.42;110233;1265;21244;-38
2023/05/21 02:19:32;;;;;;;;;13.00;11.00;;;;;21.80;50.32;101645.11;110253;1265;21048;-39
2023/05/21 02:21:59;;;;;;;;;17.00;15.00;;;;;21.81;50.21;101641.37;110258;1251;21589;-39
2023/05/21 02:24:27;;;;;;;;;14.00;13.00;;;;;21.82;50.21;101640.63;110242;1265;19236;-39
2023/05/21 02:26:54;;;;;;;;;13.00;13.00;;;;;21.82;50.16;101643.48;110230;1265;19418;-39
2023/05/21 02:29:21;;;;;;;;;16.00;15.00;;;;;21.81;50.01;101641.23;110262;1265;23464;-39
2023/05/21 02:31:50;;;;;;;;;13.00;13.00;;;;;21.81;49.94;101642.86;110266;1265;19923;-39
2023/05/21 02:34:19;;;;;;;;;14.00;11.00;;;;;21.80;49.99;101642.42;110242;1250;23000;-40
2023/05/21 02:36:51;;;;;;;;;12.50;12.50;;;;;21.80;49.89;101641.53;110257;1265;23608;-37
2023/05/21 02:39:18;;;;;;;;;10.50;10.50;;;;;21.79;49.95;101641.84;110301;1249;19966;-41
2023/05/21 02:41:46;;;;;;;;;14.50;13.00;;;;;21.79;49.75;101645.66;110261;1265;20841;-38
2023/05/21 02:44:14;;;;;;;;;11.00;11.00;;;;;21.79;49.81;101645.15;110302;1250;21446;-39
2023/05/21 02:46:41;;;;;;;;;14.00;14.00;;;;;21.79;49.63;101641.80;110242;1266;19945;-40
2023/05/21 02:49:09;;;;;;;;;17.50;14.00;;;;;21.78;49.64;101642.83;110280;1265;19653;-39
2023/05/21 02:51:36;;;;;;;;;13.00;13.00;;;;;21.78;49.76;101642.11;110290;1251;21664;-39
2023/05/21 02:54:04;;;;;;;;;14.00;14.00;;;;;21.78;49.70;101642.73;110293;1251;20055;-39
2023/05/21 02:56:31;;;;;;;;;11.50;11.00;;;;;21.77;49.66;101639.92;110291;1265;22997;-40
2023/05/21 02:58:58;;;;;;;;;14.00;14.00;;;;;21.77;49.67;101638.63;110266;1265;20161;-39
2023/05/21 03:01:26;;;;;;;;;11.00;11.00;;;;;21.77;49.77;101640.09;110293;1265;21194;-39
2023/05/21 03:03:53;;;;;;;;;13.00;13.00;;;;;21.77;49.54;101638.12;110295;1265;20741;-41
2023/05/21 03:06:21;;;;;;;;;14.00;11.00;;;;;21.77;49.62;101633.17;110294;1257;22117;-39
2023/05/21 03:08:48;;;;;;;;;14.00;14.00;;;;;21.77;49.51;101628.08;110269;1265;24093;-39
2023/05/21 03:11:16;;;;;;;;;12.33;12.33;;;;;21.77;49.33;101629.28;110302;1265;19365;-39
2023/05/21 03:13:43;;;;;;;;;15.00;14.00;;;;;21.76;49.45;101626.69;110288;1251;22670;-39
2023/05/21 03:16:11;;;;;;;;;17.00;14.00;;;;;21.77;49.31;101628.09;110277;1265;19828;-39
2023/05/21 03:18:38;;;;;;;;;15.00;15.00;;;;;21.76;49.36;101627.08;110260;1265;22942;-41
2023/05/21 03:21:06;;;;;;;;;13.00;13.00;;;;;21.75;49.30;101622.30;110285;1265;20088;-39
2023/05/21 03:23:33;;;;;;;;;12.00;12.00;;;;;21.76;49.18;101627.08;110252;1265;22942;-40
2023/05/21 03:26:01;;;;;;;;;15.00;14.00;;;;;21.75;49.20;101626.58;110275;1265;23160;-40
2023/05/21 03:28:28;;;;;;;;;13.50;13.00;;;;;21.75;49.14;101627.31;110282;1265;20161;-38
2023/05/21 03:30:56;;;;;;;;;13.50;13.00;;;;;21.75;49.21;101626.77;110272;1250;21333;-39
2023/05/21 03:33:23;;;;;;;;;13.50;11.00;;;;;21.75;49.14;101626.21;110232;1265;20877;-39
2023/05/21 03:35:51;;;;;;;;;14.50;14.00;;;;;21.75;49.16;101627.92;110255;1265;20200;-39
2023/05/21 03:38:18;;;;;;;;;17.00;15.00;;;;;21.73;49.10;101625.88;110269;1265;23488;-40
2023/05/21 03:40:45;;;;;;;;;13.00;13.00;;;;;21.74;49.33;101627.79;110249;1265;20751;-39
2023/05/21 03:43:13;;;;;;;;;13.00;13.00;;;;;21.74;49.27;101632.73;110256;1265;21533;-40
2023/05/21 03:45:40;;;;;;;;;14.00;13.00;;;;;21.74;49.18;101633.86;110257;1251;20021;-40
2023/05/21 03:48:08;;;;;;;;;13.50;13.00;;;;;21.74;48.91;101635.80;110233;1265;22009;-40
2023/05/21 03:50:35;;;;;;;;;17.00;17.00;;;;;21.75;49.05;101638.43;110126;1251;20108;-39
2023/05/21 03:53:02;;;;;;;;;13.00;13.00;;;;;21.74;49.20;101634.34;110231;1265;21006;-40
2023/05/21 03:55:30;;;;;;;;;12.00;12.00;;;;;21.75;49.00;101635.39;110264;1265;20760;-39
2023/05/21 03:57:58;;;;;;;;;15.00;15.00;;;;;21.74;48.98;101634.67;110310;1251;22134;-40
2023/05/21 04:00:25;;;;;;;;;14.67;14.00;;;;;21.74;49.04;101631.81;110276;1265;20292;-39
2023/05/21 04:02:53;;;;;;;;;14.00;14.00;;;;;21.75;48.88;101634.58;110222;1266;23192;-39
2023/05/21 04:05:20;;;;;;;;;13.00;13.00;;;;;21.74;48.85;101635.05;110259;1265;23571;-38
2023/05/21 04:07:48;;;;;;;;;13.00;13.00;;;;;21.74;48.74;101637.61;110276;1251;20003;-39
2023/05/21 04:10:16;;;;;;;;;14.00;13.00;;;;;21.75;48.85;101636.11;110279;1251;23513;-39
2023/05/21 04:12:43;;;;;;;;;14.33;13.67;;;;;21.75;48.87;101637.35;110260;1251;20295;-42
2023/05/21 04:15:11;;;;;;;;;16.00;15.50;;;;;21.75;48.64;101637.89;110275;1257;24757;-39
2023/05/21 04:17:38;;;;;;;;;12.00;11.00;;;;;21.75;48.74;101633.52;110259;1265;23396;-40
2023/05/21 04:20:07;;;;;;;;;17.00;15.00;;;;;21.74;48.71;101636.48;110265;1265;20149;-40
2023/05/21 04:22:34;;;;;;;;;11.00;11.00;;;;;21.75;48.54;101635.94;110312;1265;22866;-39
2023/05/21 04:25:02;;;;;;;;;18.00;15.00;;;;;21.75;48.54;101639.02;110268;1265;19443;-39
2023/05/21 04:27:29;;;;;;;;;16.00;14.50;;;;;21.75;48.60;101637.71;110262;1251;21574;-39
2023/05/21 04:29:57;;;;;;;;;14.00;13.00;;;;;21.74;48.56;101638.50;110248;1265;23180;-39
2023/05/21 04:32:24;;;;;;;;;14.00;13.00;;;;;21.74;48.58;101635.11;110280;1250;22778;-39
2023/05/21 04:34:51;;;;;;;;;11.00;11.00;;;;;21.74;48.42;101633.69;110281;1251;21584;-40
2023/05/21 04:37:19;;;;;;;;;14.00;14.00;;;;;21.74;48.34;101631.85;110290;1265;19198;-39
2023/05/21 04:39:46;;;;;;;;;13.00;11.00;;;;;21.75;48.38;101636.27;110271;1265;20789;-39
2023/05/21 04:42:14;;;;;;;;;12.00;11.00;;;;;21.74;48.33;101634.37;110247;1251;23497;-39
2023/05/21 04:44:43;;;;;;;;;13.00;13.00;;;;;21.74;48.45;101634.78;110261;1251;20283;-39
2023/05/21 04:47:11;;;;;;;;;15.00;15.00;;;;;21.74;48.34;101631.58;110279;1265;19456;-39
2023/05/21 04:49:38;;;;;;;;;14.00;13.67;;;;;21.74;48.23;101630.14;110249;1265;22839;-39
2023/05/21 04:52:07;;;;;;;;;13.00;13.00;;;;;21.76;48.35;101629.63;110280;1266;20006;-39
2023/05/21 04:54:35;;;;;;;;;13.00;12.00;;;;;21.75;48.28;101625.67;110263;1265;22834;-39
2023/05/21 04:57:02;;;;;;;;;11.00;11.00;;;;;21.76;48.27;101620.50;110261;1251;22516;-40
2023/05/21 04:59:30;;;;;;;;;11.67;11.67;;;;;21.75;48.11;101628.03;110267;1265;19232;-40
2023/05/21 05:01:58;;;;;;;;;14.00;14.00;;;;;21.77;48.14;101633.55;110262;1251;23451;-41
2023/05/21 05:04:25;;;;;;;;;13.00;13.00;;;;;21.76;48.07;101629.09;110242;1265;23148;-39
2023/05/21 05:06:53;;;;;;;;;12.00;12.00;;;;;21.76;48.14;101628.52;110249;1265;20021;-41
2023/05/21 05:09:22;;;;;;;;;11.00;10.00;;;;;21.77;48.17;101632.59;110257;1265;21143;-39
2023/05/21 05:11:50;;;;;;;;;13.00;13.00;;;;;21.77;48.02;101626.55;110244;1251;22879;-40
2023/05/21 05:14:17;;;;;;;;;10.50;10.50;;;;;21.78;48.16;101628.50;110174;1251;19975;-41
2023/05/21 05:16:46;;;;;;;;;18.00;17.00;;;;;21.74;47.86;101625.79;110229;1265;20957;-40
2023/05/21 05:19:14;;;;;;;;;13.00;13.00;;;;;21.48;47.94;101632.20;110221;1250;23099;-40
2023/05/21 05:21:41;;;;;;;;;14.50;14.50;;;;;21.48;48.03;101629.14;110253;1265;22951;-42
2023/05/21 05:24:09;;;;;;;;;15.00;14.00;;;;;21.38;47.95;101628.11;110240;1265;20784;-40
2023/05/21 05:26:36;;;;;;;;;17.50;14.00;;;;;21.42;48.10;101630.60;110224;1251;22661;-40
2023/05/21 05:29:04;;;;;;;;;16.33;14.00;;;;;21.49;48.06;101629.30;110228;1251;19925;-40
2023/05/21 05:31:31;;;;;;;;;16.00;16.00;;;;;21.41;47.88;101632.55;110241;1251;20972;-41
2023/05/21 05:33:58;;;;;;;;;16.00;16.00;;;;;21.41;48.06;101634.02;110227;1265;21345;-40
2023/05/21 05:36:26;;;;;;;;;17.00;16.00;;;;;21.39;47.80;101636.91;110250;1265;19931;-40
2023/05/21 05:38:53;;;;;;;;;18.00;17.00;;;;;21.38;47.89;101634.45;110254;1265;23513;-44
2023/05/21 05:41:21;;;;;;;;;16.00;14.00;;;;;21.37;48.11;101634.80;110220;1251;21683;-40
2023/05/21 05:43:49;;;;;;;;;19.00;18.00;;;;;21.40;47.78;101635.56;110176;1265;23093;-40
2023/05/21 05:46:16;;;;;;;;;18.00;16.50;;;;;21.27;48.14;101636.14;110220;1265;23000;-40
2023/05/21 05:48:43;;;;;;;;;17.00;16.50;;;;;21.32;48.06;101635.15;110300;1251;21551;-40
2023/05/21 05:51:11;;;;;;;;;17.00;17.00;;;;;21.29;47.88;101632.52;110259;1251;23115;-41
2023/05/21 05:53:39;;;;;;;;;19.00;19.00;;;;;21.38;47.90;101626.09;110263;1251;20911;-40
2023/05/21 05:56:06;;;;;;;;;16.00;16.00;;;;;21.47;47.97;101628.25;110257;1250;21881;-40
2023/05/21 05:58:34;;;;;;;;;19.00;17.00;;;;;21.49;47.95;101624.67;110235;1265;20045;-40
2023/05/21 06:01:02;;;;;;;;;15.00;15.00;;;;;21.54;47.97;101626.98;110264;1265;19467;-40
2023/05/21 06:03:29;;;;;;;;;17.00;16.00;;;;;21.59;47.89;101628.69;110273;1251;21574;-40
2023/05/21 06:05:56;;;;;;;;;16.00;16.00;;;;;21.55;47.93;101631.46;110256;1251;23524;-40
2023/05/21 06:08:24;;;;;;;;;16.00;16.00;;;;;21.46;48.04;101631.98;110213;1265;21155;-40
2023/05/21 06:10:51;;;;;;;;;17.00;17.00;;;;;21.42;47.93;101635.16;110232;1251;21563;-40
2023/05/21 06:13:19;;;;;;;;;17.00;17.00;;;;;21.45;47.83;101634.52;110158;1251;23435;-40
2023/05/21 06:15:46;;;;;;;;;16.00;14.00;;;;;21.49;47.92;101629.17;110285;1250;19423;-40
2023/05/21 06:18:13;;;;;;;;;16.50;16.50;;;;;21.54;47.71;101631.18;110267;1251;20127;-40
2023/05/21 06:20:41;;;;;;;;;16.00;16.00;;;;;21.63;47.44;101623.13;110256;1251;20065;-43
2023/05/21 06:23:08;;;;;;;;;17.00;16.00;;;;;21.70;47.55;101622.59;110283;1260;20796;-40
2023/05/21 06:25:36;;;;;;;;;14.00;14.00;;;;;21.60;47.54;101624.95;110248;1251;21418;-40
2023/05/21 06:28:03;;;;;;;;;16.00;16.00;;;;;21.52;47.65;101622.63;110265;1265;22987;-40
2023/05/21 06:30:31;;;;;;;;;16.00;16.00;;;;;21.54;47.53;101618.61;110261;1265;19427;-41
2023/05/21 06:32:58;;;;;;;;;13.00;13.00;;;;;21.62;47.46;101618.03;110264;1251;23129;-42
2023/05/21 06:35:26;;;;;;;;;15.00;15.00;;;;;21.71;47.27;101622.66;110266;1251;20344;-39
2023/05/21 06:37:53;;;;;;;;;17.50;16.00;;;;;21.78;47.65;101621.98;110263;1265;23121;-39
2023/05/21 06:40:21;;;;;;;;;13.00;13.00;;;;;21.80;47.84;101621.34;110254;1251;21581;-39
2023/05/21 06:42:48;;;;;;;;;14.50;14.00;;;;;21.85;47.91;101621.47;110245;1251;21357;-41
2023/05/21 06:45:15;;;;;;;;;16.00;15.00;;;;;21.83;47.59;101615.93;110271;1251;22159;-40
2023/05/21 06:47:43;;;;;;;;;14.00;13.00;;;;;21.85;47.53;101619.93;110205;1266;20123;-40
2023/05/21 06:50:10;;;;;;;;;13.50;13.00;;;;;21.83;47.60;101616.32;110261;1251;22376;-40
2023/05/21 06:52:38;;;;;;;;;14.00;14.00;;;;;21.83;47.41;101615.25;110247;1251;21958;-41
2023/05/21 06:55:06;;;;;;;;;14.50;13.50;;;;;21.90;47.51;101612.08;110198;1266;21653;-40
2023/05/21 06:57:33;;;;;;;;;14.00;13.00;;;;;21.94;47.51;101610.95;110269;1251;19998;-40
2023/05/21 07:00:01;;;;;;;;;14.00;13.00;;;;;21.96;47.45;101613.79;110240;1265;20927;-40
2023/05/21 07:02:28;;;;;;;;;14.50;13.50;;;;;22.03;47.42;101611.90;110250;1260;20548;-39
2023/05/21 07:04:56;;;;;;;;;13.00;13.00;;;;;22.05;47.20;101618.84;110267;1250;21162;-39
2023/05/21 07:07:23;;;;;;;;;14.00;13.50;;;;;22.06;47.17;101618.20;110253;1265;19459;-40
2023/05/21 07:09:50;;;;;;;;;14.00;11.00;;;;;22.08;47.43;101612.16;110256;1251;23129;-40
2023/05/21 07:12:18;;;;;;;;;12.00;11.00;;;;;22.06;47.25;101614.37;110241;1265;19936;-42
2023/05/21 07:14:45;;;;;;;;;17.00;15.00;;;;;22.08;47.31;101609.38;110232;1265;21143;-40
2023/05/21 07:17:13;;;;;;;;;54.50;43.00;;;;;22.19;47.15;101606.64;110176;1265;20159;-40
2023/05/21 07:19:40;;;;;;;;;89.00;63.50;;;;;22.23;47.11;101605.84;110225;1265;19076;-40
2023/05/21 07:22:08;;;;;;;;;91.00;65.50;;;;;22.28;47.45;101604.38;110161;1260;20798;-41
2023/05/21 07:24:35;;;;;;;;;90.33;64.67;;;;;22.30;47.26;101605.30;110244;1265;20698;-40
2023/05/21 07:27:02;;;;;;;;;89.50;67.00;;;;;22.33;47.49;101606.17;110211;1265;18999;-46
2023/05/21 07:29:30;;;;;;;;;98.00;70.00;;;;;22.38;47.64;101606.08;110238;1265;22153;-39
2023/05/21 07:31:57;;;;;;;;;104.00;75.00;;;;;22.41;47.81;101603.90;110267;1266;20143;-40
2023/05/21 07:34:25;;;;;;;;;103.50;75.50;;;;;22.41;48.00;101601.85;110277;1265;20443;-40
2023/05/21 07:36:52;;;;;;;;;110.00;81.00;;;;;22.41;48.03;101602.77;110262;1265;23508;-40
2023/05/21 07:39:19;;;;;;;;;102.00;74.00;;;;;22.43;48.20;101601.55;110230;1251;22564;-40
2023/05/21 07:41:47;;;;;;;;;103.67;72.00;;;;;22.45;48.43;101599.77;110266;1265;23380;-40
2023/05/21 07:44:14;;;;;;;;;94.50;68.00;;;;;22.52;48.67;101598.88;110215;1266;20832;-41
2023/05/21 07:46:42;;;;;;;;;84.33;60.67;;;;;22.58;48.63;101598.20;110113;1250;23096;-40
2023/05/21 07:49:15;;;;;;;;;80.00;57.00;;;;;22.61;48.69;101600.08;110099;1251;19165;-40
2023/05/21 07:51:42;;;;;;;;;54.50;43.50;;;;;22.65;48.00;101602.54;110206;1266;23457;-45
2023/05/21 07:54:10;;;;;;;;;41.50;37.00;;;;;22.63;47.63;101595.98;110236;1265;20135;-39
2023/05/21 07:56:37;;;;;;;;;25.00;21.00;;;;;22.66;47.00;101601.84;110230;1251;21149;-39
2023/05/21 07:59:05;;;;;;;;;21.00;18.00;;;;;22.71;45.00;101596.21;110223;1265;19471;-39
2023/05/21 08:01:33;;;;;;;;;15.00;14.50;;;;;22.71;44.45;101594.05;110253;1265;21548;-41
2023/05/21 08:04:04;;;;;;;;;18.50;18.00;;;;;22.76;44.34;101596.75;110186;1265;19097;-41
2023/05/21 08:06:32;;;;;;;;;14.00;14.00;;;;;22.73;44.72;101596.06;110127;1265;23032;-40
2023/05/21 08:09:00;;;;;;;;;15.00;12.00;;;;;22.74;43.95;101595.89;110177;1250;21567;-40
2023/05/21 08:11:27;;;;;;;;;15.50;13.00;;;;;22.74;43.57;101596.11;110119;1249;23163;-39
2023/05/21 08:13:55;;;;;;;;;12.00;12.00;;;;;22.70;42.87;101598.89;110096;1260;19893;-39
2023/05/21 08:16:23;;;;;;;;;15.00;14.00;;;;;22.76;42.81;101594.23;110157;1265;20160;-40
2023/05/21 08:18:50;;;;;;;;;12.00;12.00;;;;;22.76;42.66;101593.09;110201;1249;20086;-40
2023/05/21 08:21:18;;;;;;;;;12.00;12.00;;;;;22.73;42.99;101590.56;110179;1265;19446;-40
2023/05/21 08:23:46;;;;;;;;;13.00;12.00;;;;;22.73;43.01;101589.82;110222;1260;21754;-40
2023/05/21 08:26:15;;;;;;;;;9.00;9.00;;;;;22.73;42.53;101595.08;110203;1265;19977;-39
2023/05/21 08:28:42;;;;;;;;;11.50;11.50;;;;;22.67;41.70;101587.55;110256;1251;23044;-40
2023/05/21 08:31:10;;;;;;;;;11.67;11.00;;;;;22.70;41.48;101588.91;110238;1265;20110;-40
2023/05/21 08:33:37;;;;;;;;;11.00;11.00;;;;;22.72;41.02;101589.16;110226;1251;19133;-39
2023/05/21 08:36:05;;;;;;;;;10.50;10.50;;;;;22.65;41.23;101590.67;110275;1265;23620;-40
2023/05/21 08:38:32;;;;;;;;;9.00;9.00;;;;;22.63;41.30;101586.27;110288;1260;21534;-45
2023/05/21 08:41:00;;;;;;;;;11.00;9.00;;;;;22.71;41.16;101589.19;110309;1265;20111;-39
2023/05/21 08:43:27;;;;;;;;;11.00;9.00;;;;;22.71;40.93;101591.11;110259;1257;24749;-39
2023/05/21 08:45:54;;;;;;;;;8.00;8.00;;;;;22.70;40.92;101590.90;110287;1250;20286;-42
2023/05/21 08:48:22;;;;;;;;;8.00;8.00;;;;;22.65;41.24;101585.70;110280;1251;22953;-39
2023/05/21 08:50:49;;;;;;;;;7.00;7.00;;;;;22.63;41.07;101586.48;110273;1265;23511;-39
2023/05/21 08:53:17;;;;;;;;;7.50;7.50;;;;;22.61;41.12;101585.60;110287;1251;21631;-39
2023/05/21 08:55:44;;;;;;;;;9.00;9.00;;;;;22.61;40.98;101585.70;110264;1250;19628;-39
2023/05/21 08:58:12;;;;;;;;;7.00;7.00;;;;;22.58;40.44;101584.12;110254;1265;20698;-39
2023/05/21 09:00:40;;;;;;;;;10.50;8.50;;;;;22.55;40.43;101584.91;110261;1250;23523;-39
2023/05/21 09:03:09;;;;;;;;;10.00;9.00;;;;;22.53;40.70;101583.99;110302;1265;19658;-39
2023/05/21 09:05:36;;;;;;;;;7.00;7.00;;;;;22.59;40.15;101585.52;110251;1265;24102;-39
2023/05/21 09:08:04;;;;;;;;;8.00;8.00;;;;;22.57;39.85;101582.45;110271;1265;21519;-39
2023/05/21 09:10:31;;;;;;;;;8.00;8.00;;;;;22.56;40.05;101586.75;110208;1265;23457;-40
2023/05/21 09:12:59;;;;;;;;;7.00;7.00;;;;;22.56;39.80;101588.77;110273;1250;20844;-39
2023/05/21 09:15:26;;;;;;;;;7.50;7.50;;;;;22.54;39.93;101582.08;110246;1265;22109;-41
2023/05/21 09:17:54;;;;;;;;;10.33;10.33;;;;;22.55;39.69;101584.16;110252;1250;19640;-39
2023/05/21 09:20:21;;;;;;;;;8.50;8.50;;;;;22.53;39.42;101579.98;110211;1257;19343;-39
2023/05/21 09:22:49;;;;;;;;;8.00;8.00;;;;;22.54;39.08;101583.85;110216;1265;22987;-39
2023/05/21 09:25:16;;;;;;;;;5.00;5.00;;;;;22.54;39.47;101578.19;110250;1266;20007;-39
2023/05/21 09:27:44;;;;;;;;;7.00;7.00;;;;;22.56;39.22;101576.79;110264;1265;23036;-39
2023/05/21 09:30:11;;;;;;;;;8.50;8.00;;;;;22.58;39.43;101579.79;110279;1251;21584;-42
2023/05/21 09:32:39;;;;;;;;;11.00;8.50;;;;;22.61;39.12;101575.76;110227;1251;19979;-44
2023/05/21 09:35:06;;;;;;;;;9.00;8.67;;;;;22.64;39.12;101573.30;110260;1265;20727;-39
2023/05/21 09:37:36;;;;;;;;;8.00;8.00;;;;;22.63;39.31;101576.64;110257;1257;21585;-39
2023/05/21 09:40:04;;;;;;;;;8.50;7.00;;;;;22.63;39.28;101575.83;110223;1251;22997;-39
2023/05/21 09:42:31;;;;;;;;;8.00;7.00;;;;;22.64;39.35;101578.06;110303;1265;23534;-41
2023/05/21 09:44:59;;;;;;;;;7.00;7.00;;;;;22.60;39.80;101575.18;110222;1251;21798;-39
2023/05/21 09:47:26;;;;;;;;;7.33;7.33;;;;;22.59;39.97;101574.05;110221;1265;19353;-40
2023/05/21 09:49:54;;;;;;;;;8.50;8.00;;;;;22.60;40.14;101571.55;110213;1265;20889;-39
2023/05/21 09:52:21;;;;;;;;;8.00;7.00;;;;;22.60;40.16;101566.62;110263;1251;20108;-40
2023/05/21 09:54:48;;;;;;;;;8.00;7.00;;;;;22.62;40.17;101570.20;110262;1250;22847;-39
2023/05/21 09:57:16;;;;;;;;;9.50;9.50;;;;;22.60;40.34;101565.86;110305;1251;20783;-38
2023/05/21 09:59:43;;;;;;;;;9.00;8.00;;;;;22.61;40.50;101565.66;110252;1251;20216;-39
2023/05/21 10:02:11;;;;;;;;;9.00;8.50;;;;;22.61;40.39;101565.00;110261;1251;21394;-38
2023/05/21 10:04:38;;;;;;;;;9.00;9.00;;;;;22.61;40.10;101557.98;110278;1251;22122;-39
2023/05/21 10:07:06;;;;;;;;;8.50;7.50;;;;;22.62;40.10;101555.27;110210;1251;21810;-39
2023/05/21 10:09:33;;;;;;;;;7.00;7.00;;;;;22.63;40.33;101551.96;110265;1265;24138;-39
2023/05/21 10:12:01;;;;;;;;;8.00;7.00;;;;;22.64;40.32;101557.23;110277;1251;20827;-40
2023/05/21 10:14:28;;;;;;;;;8.00;8.00;;;;;22.65;40.26;101551.68;110244;1265;20796;-39
2023/05/21 10:16:56;;;;;;;;;8.33;7.00;;;;;22.66;40.19;101551.89;110285;1266;19540;-39
2023/05/21 10:19:23;;;;;;;;;8.00;8.00;;;;;22.62;40.44;101552.75;110279;1265;20662;-43
2023/05/21 10:21:51;;;;;;;;;8.00;7.67;;;;;22.59;40.67;101555.99;110257;1265;21804;-41
2023/05/21 10:24:18;;;;;;;;;8.00;8.00;;;;;22.64;40.56;101552.30;110269;1251;19574;-39
2023/05/21 10:26:46;;;;;;;;;9.00;8.00;;;;;22.67;40.39;101554.73;110257;1265;19408;-39
2023/05/21 10:29:13;;;;;;;;;7.00;7.00;;;;;22.65;40.40;101557.35;110271;1265;20139;-39
2023/05/21 10:31:41;;;;;;;;;8.00;8.00;;;;;22.63;40.21;101550.66;110244;1257;19049;-38
2023/05/21 10:34:09;;;;;;;;;8.33;8.00;;;;;22.65;40.02;101552.56;110288;1265;19549;-39
2023/05/21 10:36:36;;;;;;;;;7.00;7.00;;;;;22.64;40.03;101546.29;110297;1257;22904;-39
2023/05/21 10:39:04;;;;;;;;;7.00;7.00;;;;;22.61;40.53;101547.23;110253;1257;19642;-39
2023/05/21 10:41:31;;;;;;;;;7.00;5.00;;;;;22.62;40.26;101545.13;110276;1265;21126;-42
2023/05/21 10:43:59;;;;;;;;;5.67;5.67;;;;;22.62;39.90;101552.37;110298;1265;21540;-40
2023/05/21 10:46:26;;;;;;;;;7.50;7.00;;;;;22.60;39.87;101547.35;110266;1259;19694;-40
2023/05/21 10:48:54;;;;;;;;;8.00;8.00;;;;;22.61;39.86;101538.84;110256;1251;20801;-39
2023/05/21 10:51:21;;;;;;;;;8.00;7.00;;;;;22.61;39.80;101536.86;110282;1251;23084;-41
2023/05/21 10:53:48;;;;;;;;;7.00;7.00;;;;;22.62;39.84;101541.65;110262;1250;21015;-40
2023/05/21 10:56:16;;;;;;;;;8.00;8.00;;;;;22.62;39.43;101535.98;110222;1260;20705;-38
2023/05/21 10:58:43;;;;;;;;;7.00;7.00;;;;;22.61;39.67;101534.67;110264;1265;22696;-39
2023/05/21 11:01:11;;;;;;;;;7.33;7.33;;;;;22.61;39.98;101531.52;110225;1265;19573;-39
2023/05/21 11:03:38;;;;;;;;;5.00;5.00;;;;;22.60;39.92;101529.10;110282;1265;19350;-39
2023/05/21 11:06:07;;;;;;;;;7.67;7.33;;;;;22.58;40.10;101522.91;110261;1251;21531;-39